• Join FlightAware (Why Join?)
  • Login
  • US Flag 
10:52PM EDT


 

Airport Tracker/Info


-or-


 

Live Flight TrackerFlight Track Log ✈ N493TM ✈ 05-Jan-2014 ✈ CYXX - KSFO

Flight Track Log - Related Links

Times and Time Zones

All times are in EST time to prevent confusion due to time zone crossing. See the N493TM flight status page for this flight to view local times or setup timezone preferences in your user account.

Time Position Orientation Groundspeed Altitude Reporting Facility
EST Latitude Longitude Course Direction KTS MPH feet Rate Location/Type
11:53PM 47.7406 -122.3488 175° South  Level FlightAware Approximate
11:54PM 47.6340 -122.3355 175° South  Level FlightAware Approximate
11:55PM 47.5277 -122.3189 172° South  Level FlightAware Approximate
11:56PM 47.4216 -122.3000 180° South  Level FlightAware Approximate
11:57PM 47.3149 -122.2947 174° South  Level FlightAware Approximate
11:57PM 49.0167 -122.3167 175° South 140 161 1,200  Level Vancouver Center
11:58PM 47.2085 -122.2787 174° South  Level FlightAware Approximate
11:58PM 48.9833 -122.3000 162° South 150 173 4,000  Level Vancouver Center
11:59PM 47.1020 -122.2627 174° South  Level FlightAware Approximate
11:59PM 48.9500 -122.3500 225° Southwest 190 219 6,800  Level Vancouver Center
12:00AM 46.9955 -122.2500 180° South  Level FlightAware Approximate
12:00AM 48.9000 -122.4000 213° Southwest 220 253 7,000  Level Vancouver Center
12:01AM 46.8886 -122.2409 177° South  Level FlightAware Approximate
12:01AM 48.8333 -122.4500 206° Southwest 230 265 7,500  Level Vancouver Center
12:02AM 46.7817 -122.2310 175° South  Level FlightAware Approximate
12:02AM 48.7667 -122.4500 180° South 250 288 10,400  Level Vancouver Center
12:03AM 46.6750 -122.2175 175° South  Level FlightAware Approximate
12:03AM 48.7000 -122.4833 198° South 260 299 13,000  Level Vancouver Center
12:04AM 48.6333 -122.5333 206° Southwest 270 311 14,800 1,680 Climbing Vancouver Center
12:05AM 48.5317 -122.5578 189° South 316 364 17,200 1,620 Climbing Seattle Center
12:06AM 48.4392 -122.5550 179° South 329 379 18,800 1,620 Climbing Seattle Center
12:07AM 48.3431 -122.5503 178° South 340 391 20,500 1,560 Climbing Seattle Center
12:08AM 48.2406 -122.5458 178° South 359 413 22,000 1,500 Climbing Seattle Center
12:09AM 48.1358 -122.5417 178° South 375 432 23,600 1,560 Climbing Seattle Center
12:10AM 48.0089 -122.5358 178° South 380 437 25,200 1,440 Climbing Seattle Center
12:11AM 47.9003 -122.5317 179° South 388 447 26,600 1,320 Climbing Seattle Center
12:12AM 47.7903 -122.5275 179° South 398 458 27,900 1,140 Climbing Seattle Center
12:13AM 47.6892 -122.5228 178° South 407 468 28,900 1,200 Climbing Seattle Center
12:14AM 47.5675 -122.5197 179° South 415 478 30,400 1,320 Climbing Seattle Center
12:15AM 47.4533 -122.5128 178° South 417 480 31,600 1,200 Climbing Seattle Center
12:16AM 47.3397 -122.4733 167° South 432 497 32,900 1,200 Climbing Seattle Center
12:17AM 47.2289 -122.4133 160° South 427 491 34,100 1,080 Climbing Seattle Center
12:18AM 47.1175 -122.3511 159° South 431 496 35,100 900 Climbing Seattle Center
12:20AM 47.0044 -122.2897 160° South 434 499 36,000 900 Climbing Seattle Center
12:21AM 46.8633 -122.2592 172° South 430 495 37,000 840 Climbing Seattle Center
12:22AM 46.7439 -122.2592 180° South 430 495 37,700 660 Climbing Seattle Center
12:23AM 46.6239 -122.2597 180° South 430 495 38,400 600 Climbing Seattle Center
12:24AM 46.5039 -122.2581 179° South 431 496 39,000 240 Climbing Seattle Center
12:25AM 46.3819 -122.2586 180° South 438 504 39,000  Level Seattle Center
12:26AM 46.2586 -122.2575 180° South 443 510 39,000  Level Seattle Center
12:27AM 46.1419 -122.2569 180° South 441 507 39,000  Level Seattle Center
12:28AM 46.0192 -122.2569 180° South 441 507 39,000  Level Seattle Center
12:29AM 45.8989 -122.2542 179° South 435 501 39,000  Level Seattle Center
12:30AM 45.7781 -122.2558 181° South 432 497 39,000  Level Seattle Center
12:31AM 45.6583 -122.2539 179° South 430 495 39,000  Level Seattle Center
12:32AM 45.5381 -122.2544 180° South 431 496 39,000  Level Seattle Center
12:33AM 45.4181 -122.2531 180° South 429 494 39,000  Level Seattle Center
12:34AM 45.3000 -122.2533 180° South 426 490 39,000  Level Seattle Center
12:35AM 45.1814 -122.2519 180° South 424 488 39,000  Level Seattle Center
12:36AM 45.0617 -122.2508 180° South 430 495 39,000  Level Seattle Center
12:37AM 44.9444 -122.2503 180° South 423 487 39,000  Level Seattle Center
12:38AM 44.8103 -122.2508 180° South 414 476 39,000  Level Seattle Center
12:39AM 44.6939 -122.2511 180° South 417 480 39,000  Level Seattle Center
12:40AM 44.5764 -122.2500 180° South 423 487 39,000  Level Seattle Center
12:41AM 44.4583 -122.2494 180° South 423 487 39,000  Level Seattle Center
12:42AM 44.3400 -122.2481 180° South 423 487 39,000  Level Seattle Center
12:43AM 44.2228 -122.2478 180° South 421 484 39,000  Level Seattle Center
12:44AM 44.1067 -122.2475 180° South 417 480 39,000  Level Seattle Center
12:45AM 43.9908 -122.2469 180° South 416 479 39,000  Level Seattle Center
12:46AM 43.8756 -122.2458 180° South 414 476 39,000  Level Seattle Center
12:47AM 43.7589 -122.2456 180° South 416 479 39,000  Level Seattle Center
12:48AM 43.6453 -122.2456 180° South 411 473 39,000  Level Seattle Center
12:49AM 43.5289 -122.2458 180° South 415 478 39,000  Level Seattle Center
12:50AM 43.4147 -122.2444 179° South 411 473 39,000  Level Seattle Center
12:51AM 43.2994 -122.2483 181° South 411 473 39,000  Level Seattle Center
12:52AM 43.1856 -122.2644 186° South 411 473 39,000  Level Seattle Center
12:53AM 43.0711 -122.2797 186° South 412 474 39,000  Level Seattle Center
12:54AM 42.9561 -122.2933 185° South 413 475 39,000  Level Seattle Center
12:55AM 42.8417 -122.3086 186° South 413 475 39,000  Level Seattle Center
12:56AM 42.7181 -122.3236 185° South 412 474 39,000  Level Seattle Center
12:57AM 42.6036 -122.3386 186° South 413 475 39,000  Level Seattle Center
12:58AM 42.4900 -122.3531 185° South 412 474 39,000  Level Seattle Center
12:59AM 42.3767 -122.3664 185° South 411 473 39,000  Level Seattle Center
01:00AM 42.2636 -122.3814 186° South 412 474 39,000  Level Seattle Center
01:01AM 42.1492 -122.3950 185° South 417 480 39,000  Level Seattle Center
01:02AM 42.0356 -122.4097 185° South 416 479 39,000  Level Seattle Center
01:03AM 41.9228 -122.4236 185° South 413 475 39,000  Level Seattle Center
01:04AM 41.8086 -122.4400 186° South 416 479 39,000  Level Seattle Center
01:05AM 41.6706 -122.4553 185° South 418 481 39,000  Level Seattle Center
01:06AM 41.5553 -122.4706 186° South 419 482 39,000  Level Seattle Center
01:07AM 41.4400 -122.4828 185° South 417 480 39,000  Level Seattle Center
01:08AM 41.3364 -122.4975 186° South 417 480 39,000  Level Seattle Center
01:09AM 41.2211 -122.5097 185° South 417 480 39,000  Level Seattle Center
01:10AM 41.1064 -122.5242 185° South 416 479 39,000  Level Seattle Center
01:11AM 40.9911 -122.5378 185° South 417 480 39,000  Level Seattle Center
01:12AM 40.8758 -122.5514 185° South 417 480 39,000  Level Seattle Center
01:13AM 40.7372 -122.5683 185° South 418 481 39,000  Level Seattle Center
01:14AM 40.5989 -122.5842 185° South 416 479 39,000  Level Oakland Center
01:15AM 40.4836 -122.5975 185° South 416 479 39,000  Level Oakland Center
01:16AM 40.3689 -122.6117 185° South 417 480 39,000  Level Oakland Center
01:17AM 40.2547 -122.6256 185° South 418 481 39,000  Level Oakland Center
01:18AM 40.1397 -122.6381 185° South 419 482 39,000  Level Oakland Center
01:19AM 40.0253 -122.6517 185° South 418 481 39,000  Level Oakland Center
01:20AM 39.9111 -122.6653 185° South 416 479 39,000  Level Oakland Center
01:21AM 39.7964 -122.6772 185° South 416 479 39,000  Level Oakland Center
01:22AM 39.6825 -122.6906 185° South 414 476 39,000  Level Oakland Center
01:23AM 39.5669 -122.7042 185° South 417 480 39,000  Level Oakland Center
01:24AM 39.4292 -122.7189 185° South 416 479 39,000  Level Oakland Center
01:25AM 39.3133 -122.7308 185° South 418 481 39,000  Level Oakland Center
01:26AM 39.1981 -122.7433 185° South 416 479 39,000  Level Oakland Center
01:27AM 39.0950 -122.7572 186° South 420 483 39,000  Level Oakland Center
01:28AM 38.9800 -122.7689 185° South 417 480 39,000 -1,200 Level Oakland Center
01:29AM 38.8475 -122.7836 185° South 413 475 36,600 -2,700 Descending Oakland Center
01:30AM 38.7322 -122.7958 185° South 417 480 33,600 -3,000 Descending Oakland Center
01:31AM 38.6183 -122.7886 177° South 412 474 30,600 -2,940 Descending Oakland Center
01:32AM 38.5097 -122.7703 172° South 396 456 27,700 -2,820 Descending Oakland Center
01:33AM 38.4119 -122.7544 173° South 363 418 25,000 -2,640 Descending Oakland Center
01:34AM 38.3169 -122.7389 173° South 347 399 22,400 -2,580 Descending Oakland Center
01:35AM 38.2242 -122.7244 173° South 340 391 19,800 -2,520 Descending Oakland Center
01:36AM 38.1342 -122.7100 173° South 329 379 17,400 -2,340 Descending Oakland Center
01:37AM 38.0497 -122.6969 173° South 315 362 15,100 -2,220 Descending Oakland Center
01:39AM 37.9711 -122.6842 173° South 295 339 13,000 -2,040 Descending Oakland Center
01:40AM 37.8844 -122.6525 164° South 296 341 11,000 -1,020 Descending Oakland Center
01:41AM 37.8250 -122.5919 141° Southeast 283 326 11,000  Level Oakland Center
01:42AM 37.7650 -122.5283 140° Southeast 285 328 11,000  Level Oakland Center
01:43AM 37.7247 -122.4422 121° Southeast 292 336 11,000 -840 Level Oakland Center
01:43AM 37.7000 -122.3667 112° Southeast 279 321 9,600 -2,760 Descending Northern Cal TRACON
01:44AM 37.6667 -122.2833 117° Southeast 273 314 6,300 -1,920 Descending Northern Cal TRACON
01:45AM 37.6333 -122.2000 117° Southeast 247 284 5,600 -960 Descending Northern Cal TRACON
01:46AM 37.5833 -122.1500 142° Southeast 232 267 4,300 -1,320 Descending Northern Cal TRACON
01:47AM 37.5667 -122.2000 247° West 221 254 3,100 -1,380 Descending Northern Cal TRACON
01:48AM 37.5833 -122.2667 288° West 212 244 1,700 -1,200 Descending Northern Cal TRACON
01:49AM 37.6000 -122.3167 293° West 132 152 800 -600 Descending Northern Cal TRACON
01:51AM 37.6219 -122.3806 293° West 151 174 300 -420 Descending Oakland Center